EDDL

Dusseldorf

Airport
ICAO code
EDDL
Summary
ICAO Region
EUR
ICAO Territory
Location

Düsseldorf,

Elevation
147 ft
Coordinates
51° 17' 22" N , 6° 46' 0" E
KCC
Metar
Observation
EDDL 042220Z AUTO 12003KT 9999 FEW031 BKN042 05/03 Q1037 NOSIG
Station
Duesseldorf
Date/Time
2023-02-04 22:20:00
Wind direction
120°
Wind speed
03 kts
Lowest cloud amount
few clouds
Temperature
5°C
Dew point
3°C
Humidity
86%
QNH
1037 hPa
Weather condition
n/a

Description

International airport serving Düsseldorf.

Climatology

Temperate Marine climate/Oceanic climate (Köppen climate classification Cfb) - Moderately cool summer and comparatively warm winter.

Runways

Designator Length Width Surface Rops
05L/23R 2700 45 CON Yes/Yes
05R/23L 3000 45 CON Yes/Yes

Airport map

Aerial View

SKYbrary Partners:

Safety knowledge contributed by: